Latest Weather Observations for Nuriootpa

IDS60901

Issued at 1:41 pm CDT Friday 19 December 2014 (issued every 10 minutes, with the page automatically refreshed every 10 minutes)

About weather observations | Map of Adelaide area stations | Latest observations for Adelaide area | Other Formats
Station Details ID: 023373 Name: NURIOOTPA VITICULTURAL Lat: -34.48 Lon: 139.01 Height: 275.0 m
Data from the previous 72 hours. | See also: Recent months at Nuriootpa
Date/Time
CDT
Tmp

°C
App
Tmp
°C
Dew
Point
°C
Rel
Hum
%
Delta-T

°C
Wind Press
QNH
hPa
Press
MSL
hPa
Rain
since
9 am
mm
Dir
 
Spd
km/h
Gust
km/h
Spd
kts
Gust
kts
19/01:30pm 21.5 17.2 3.2 30 8.8 SW 15 26 8 14 1020.0 1019.2 0.0
19/01:00pm 21.6 17.7 3.4 30 8.8 SSW 13 20 7 11 1020.2 1019.4 0.0
19/12:30pm 21.4 17.2 4.0 32 8.5 W 15 24 8 13 1020.4 1019.6 0.0
19/12:00pm 20.4 17.4 3.9 33 8.0 SE 9 19 5 10 1020.5 1019.7 0.0
19/11:30am 20.0 16.2 3.8 34 7.8 WSW 13 20 7 11 1020.5 1019.7 0.0
19/11:00am 18.5 15.3 3.2 36 7.2 W 9 20 5 11 1020.5 1019.7 0.0
19/10:30am 18.4 15.8 4.0 38 6.9 S 7 17 4 9 1020.4 1019.6 0.0
19/10:00am 17.8 15.4 4.5 41 6.4 S 6 11 3 6 1020.6 1019.8 0.0
19/09:30am 16.6 14.1 4.7 45 5.7 NW 7 11 4 6 1020.6 1019.8 0.0
19/09:00am 16.1 14.4 5.9 50 5.0 WSW 4 13 2 7 1020.3 1019.5 0.0
19/08:30am 14.6 12.6 6.4 58 4.0 NNW 6 9 3 5 1020.1 1019.3 0.0
19/08:00am 13.1 11.0 6.5 64 3.2 NNW 7 9 4 5 1019.9 1019.1 0.0
19/07:30am 11.6 9.5 6.8 72 2.3 NNE 7 9 4 5 1019.6 1018.7 0.0
19/07:00am 9.8 8.0 7.3 84 1.2 N 6 7 3 4 1019.2 1018.3 0.0
19/06:30am 7.0 4.7 5.7 91 0.6 N 7 9 4 5 1018.7 1017.8 0.0
19/06:00am 5.9 3.6 4.8 93 0.5 N 6 7 3 4 1018.5 1017.6 0.0
19/05:30am 5.0 3.7 4.1 94 0.4 CALM 0 0 0 0 1018.3 1017.4 0.0
19/05:00am 5.4 4.1 4.2 92 0.5 CALM 0 0 0 0 1018.2 1017.3 0.0
19/04:30am 6.0 4.9 4.9 93 0.5 CALM 0 0 0 0 1018.1 1017.2 0.0
19/04:00am 6.6 5.2 5.5 93 0.5 ENE 2 9 1 5 1017.8 1017.0 0.0
19/03:30am 6.9 5.5 5.6 91 0.6 WSW 2 6 1 3 1018.1 1017.2 0.0
19/03:00am 7.9 5.8 5.9 87 0.9 SW 6 6 3 3 1017.9 1017.1 0.0
19/02:30am 9.4 7.4 7.1 85 1.1 SW 7 9 4 5 1018.1 1017.2 0.0
19/02:00am 10.6 8.6 7.1 79 1.7 SW 7 7 4 4 1018.1 1017.2 0.0
19/01:30am 10.8 8.5 7.3 79 1.7 SSW 9 15 5 8 1018.2 1017.3 0.0
19/01:00am 9.1 7.1 6.1 81 1.4 SW 6 7 3 4 1018.1 1017.2 0.0
19/12:30am 10.1 7.5 6.0 76 1.9 SW 9 9 5 5 1018.1 1017.2 0.0
19/12:00am 10.0 8.0 6.9 81 1.5 SW 7 9 4 5 1018.1 1017.2 0.0
 
Date/Time
CDT
Tmp

°C
App
Tmp
°C
Dew
Point
°C
Rel
Hum
%
Delta-T

°C
Wind Press
QNH
hPa
Press
MSL
hPa
Rain
since
9 am
mm
Dir
 
Spd
km/h
Gust
km/h
Spd
kts
Gust
kts
18/11:30pm 10.6 10.0 7.3 80 1.6 CALM 0 6 0 3 1017.8 1017.0 0.0
18/11:00pm 11.5 9.7 7.0 74 2.2 S 6 11 3 6 1017.4 1016.6 0.0
18/10:30pm 11.6 9.7 7.7 77 1.9 SE 7 9 4 5 1017.1 1016.3 0.0
18/10:00pm 13.0 11.2 8.0 71 2.5 SSE 7 11 4 6 1016.8 1016.0 0.0
18/09:30pm 15.0 12.0 7.9 62 3.6 WSW 13 17 7 9 1016.4 1015.5 0.0
18/09:00pm 15.7 12.9 8.5 62 3.7 WSW 13 19 7 10 1016.3 1015.4 0.0
18/08:30pm 16.4 13.0 7.8 56 4.4 SW 15 22 8 12 1015.8 1014.9 0.0
18/08:00pm 17.6 13.2 6.4 47 5.6 SW 19 28 10 15 1015.6 1014.7 0.0
18/07:30pm 18.5 13.4 5.8 43 6.3 SW 22 33 12 18 1015.2 1014.3 0.0
18/07:00pm 19.2 13.7 6.1 42 6.6 SW 24 35 13 19 1014.6 1013.7 0.0
18/06:30pm 19.5 13.6 6.0 41 6.8 SW 26 39 14 21 1014.3 1013.4 0.0
18/06:00pm 20.9 14.6 5.9 37 7.6 WSW 28 37 15 20 1013.8 1013.0 0.0
18/05:30pm 20.9 14.3 5.9 37 7.6 SW 30 48 16 26 1013.6 1012.8 0.0
18/05:04pm 20.6 13.9 5.7 37 7.5 WSW 30 52 16 28 1013.0 1012.1 0.0
18/05:00pm 20.5 14.1 5.3 37 7.6 WSW 28 41 15 22 1013.0 1012.1 0.0
18/04:30pm 21.5 15.4 6.8 38 7.6 SW 28 46 15 25 1013.1 1012.2 0.0
18/04:09pm 19.8 13.8 6.9 43 6.6 WSW 28 46 15 25 1013.2 1012.3 0.0
18/04:00pm 21.4 14.5 6.4 37 7.7 SW 32 44 17 24 1013.1 1012.2 0.0
18/03:30pm 20.5 14.3 7.7 43 6.7 WSW 30 43 16 23 1013.0 1012.1 0.0
18/03:04pm 21.8 16.1 8.5 42 7.1 SW 28 48 15 26 1012.9 1012.0 0.0
18/03:00pm 21.1 14.6 8.0 43 6.9 SW 32 44 17 24 1012.8 1011.9 0.0
18/02:44pm 20.5 14.8 8.4 45 6.4 SW 28 46 15 25 1012.7 1011.8 0.0
18/02:30pm 20.6 14.6 8.6 46 6.4 SW 30 43 16 23 1012.6 1011.7 0.0
18/02:03pm 20.7 14.5 7.7 43 6.8 SW 30 50 16 27 1012.6 1011.7 0.0
18/02:00pm 20.1 14.0 8.4 47 6.2 WSW 30 44 16 24 1012.7 1011.8 0.0
18/01:52pm 20.4 14.7 8.3 45 6.4 WSW 28 46 15 25 1012.6 1011.7 0.0
18/01:30pm 19.5 13.6 9.2 51 5.5 SW 30 44 16 24 1012.6 1011.7 0.0
18/01:00pm 19.9 13.5 9.3 50 5.7 SW 33 54 18 29 1012.8 1011.9 0.0
18/12:30pm 20.9 14.7 7.8 42 6.9 WSW 30 48 16 26 1012.3 1011.4 0.0
18/12:02pm 20.4 14.1 7.3 42 6.8 WSW 30 48 16 26 1012.3 1011.4 0.0
18/12:00pm 20.7 14.5 7.7 43 6.8 WSW 30 46 16 25 1012.3 1011.4 0.0
18/11:32am 20.1 13.2 6.6 41 6.9 WSW 32 52 17 28 1012.1 1011.2 0.0
18/11:30am 20.5 14.2 7.2 42 6.9 WSW 30 44 16 24 1012.1 1011.2 0.0
18/11:00am 19.2 12.8 6.9 44 6.3 WSW 30 48 16 26 1012.1 1011.2 0.0
18/10:30am 19.3 12.9 7.0 44 6.3 WSW 30 48 16 26 1011.8 1010.9 0.0
18/10:28am 19.3 13.3 7.0 44 6.3 WSW 28 48 15 26 1011.8 1010.9 0.0
18/10:00am 19.0 12.6 7.1 46 6.1 WSW 30 43 16 23 1011.6 1010.7 0.0
18/09:30am 18.0 12.3 8.4 53 5.0 W 28 43 15 23 1011.5 1010.6 0.0
18/09:00am 17.1 12.3 8.9 58 4.3 W 24 35 13 19 1011.4 1010.5 0.0
18/08:30am 16.2 11.2 8.2 59 4.1 WSW 24 39 13 21 1011.2 1010.3 0.0
18/08:00am 15.4 11.4 8.2 62 3.7 WSW 19 30 10 16 1011.1 1010.2 0.0
18/07:30am 14.5 10.8 8.0 65 3.3 W 17 24 9 13 1010.8 1009.9 0.0
18/07:00am 13.4 10.5 8.0 70 2.7 W 13 22 7 12 1010.5 1009.6 0.0
18/06:30am 12.0 8.7 8.2 77 1.9 W 15 19 8 10 1010.1 1009.2 0.0
18/06:00am 8.9 6.3 7.7 92 0.6 W 11 15 6 8 1009.8 1008.9 0.0
18/05:30am 6.7 5.6 5.1 89 0.7 CALM 0 0 0 0 1009.6 1008.7 0.0
18/05:00am 6.7 5.7 5.4 91 0.6 CALM 0 0 0 0 1009.4 1008.5 0.0
18/04:30am 7.1 6.0 5.3 88 0.8 CALM 0 0 0 0 1008.9 1008.0 0.0
18/04:00am 7.4 6.4 5.6 88 0.8 CALM 0 0 0 0 1008.8 1007.9 0.0
18/03:30am 7.4 6.4 5.4 87 0.9 CALM 0 0 0 0 1008.4 1007.5 0.0
18/03:00am 7.8 6.8 5.4 85 1.1 CALM 0 0 0 0 1008.5 1007.6 0.0
18/02:30am 8.2 7.2 5.8 85 1.1 CALM 0 0 0 0 1008.6 1007.7 0.0
18/02:00am 9.1 7.1 6.1 81 1.4 E 6 9 3 5 1008.6 1007.7 0.0
18/01:30am 10.5 8.6 6.5 76 1.9 NE 6 7 3 4 1008.7 1007.8 0.0
18/01:00am 12.4 9.6 7.1 70 2.6 SW 11 13 6 7 1008.8 1007.9 0.0
18/12:30am 12.8 10.4 6.9 67 2.9 WSW 9 13 5 7 1009.2 1008.3 0.0
18/12:00am 12.2 10.0 6.4 67 2.8 SW 7 11 4 6 1009.4 1008.5 0.0
 
Date/Time
CDT
Tmp

°C
App
Tmp
°C
Dew
Point
°C
Rel
Hum
%
Delta-T

°C
Wind Press
QNH
hPa
Press
MSL
hPa
Rain
since
9 am
mm
Dir
 
Spd
km/h
Gust
km/h
Spd
kts
Gust
kts
17/11:30pm 12.5 9.2 4.8 59 3.6 SW 11 13 6 7 1009.5 1008.6 0.0
17/11:00pm 11.2 8.9 4.9 65 2.9 SW 6 9 3 5 1009.2 1008.3 0.0
17/10:30pm 11.5 10.0 4.8 63 3.1 SW 2 7 1 4 1009.1 1008.2 0.0
17/10:00pm 13.9 12.3 4.5 53 4.4 WSW 2 7 1 4 1009.1 1008.2 0.0
17/09:30pm 16.4 13.2 3.0 40 6.2 WSW 9 13 5 7 1009.0 1008.1 0.0
17/09:00pm 17.6 13.9 2.5 36 7.0 WSW 11 15 6 8 1008.6 1007.7 0.0
17/08:30pm 17.9 14.7 3.3 37 6.9 WSW 9 13 5 7 1008.2 1007.3 0.0
17/08:00pm 19.6 15.5 2.4 32 8.1 SW 13 17 7 9 1008.0 1007.1 0.0
17/07:30pm 20.1 15.6 2.2 30 8.4 WSW 15 22 8 12 1007.9 1007.0 0.0
17/07:00pm 20.2 15.8 2.7 31 8.3 SW 15 22 8 12 1007.6 1006.7 0.0
17/06:30pm 21.6 17.5 2.3 28 9.2 SW 13 22 7 12 1007.6 1006.7 0.0
17/06:00pm 21.8 16.8 1.6 26 9.5 WSW 17 28 9 15 1007.7 1006.8 0.0
17/05:30pm 22.7 17.2 0.9 23 10.2 WSW 19 26 10 14 1007.7 1006.8 0.0
17/05:00pm 22.6 18.0 1.4 24 10.0 WSW 15 28 8 15 1007.9 1007.0 0.0
17/04:30pm 22.3 18.5 1.5 25 9.8 SW 11 26 6 14 1008.3 1007.4 0.0
17/04:00pm 22.3 17.8 2.2 26 9.6 W 15 30 8 16 1008.5 1007.6 0.0
17/03:30pm 21.9 16.8 3.1 29 9.1 W 19 30 10 16 1008.7 1007.8 0.0
17/03:00pm 21.9 16.7 3.8 30 8.9 SW 20 28 11 15 1008.8 1007.9 0.0
17/02:30pm 22.2 17.6 1.7 26 9.7 W 15 28 8 15 1008.9 1008.0 0.0
17/02:00pm 21.5 17.2 3.1 29 8.9 SW 15 24 8 13 1009.2 1008.3 0.0
17/01:30pm 19.9 16.0 3.2 33 8.0 SW 13 24 7 13 1009.4 1008.5 0.0
17/01:00pm 20.4 16.5 3.4 32 8.2 SW 13 22 7 12 1009.8 1008.9 0.0
17/12:30pm 19.8 15.3 2.3 31 8.2 W 15 26 8 14 1010.3 1009.4 0.0
17/12:00pm 19.0 15.4 2.9 34 7.6 SSW 11 20 6 11 1010.5 1009.6 0.0
17/11:30am 18.4 15.2 3.2 36 7.2 S 9 19 5 10 1010.8 1009.9 0.0
17/11:00am 18.3 14.8 3.3 37 7.1 WNW 11 19 6 10 1011.0 1010.1 0.0
17/10:30am 16.8 13.2 2.7 39 6.5 WNW 11 19 6 10 1011.3 1010.4 0.0
17/10:00am 16.1 12.5 3.2 42 6.0 S 11 19 6 10 1011.6 1010.7 0.0
17/09:30am 15.7 12.8 2.6 41 6.0 NNW 7 9 4 5 1011.9 1011.0 0.0
17/09:00am 15.2 12.9 2.7 43 5.7 NNE 4 11 2 6 1011.9 1011.0 0.0
17/08:30am 14.7 12.9 5.3 53 4.5 NE 4 7 2 4 1012.0 1011.1 0.0
17/08:00am 12.6 10.5 5.9 63 3.2 N 6 7 3 4 1011.9 1011.0 0.0
17/07:30am 10.7 8.4 5.8 72 2.3 NE 7 11 4 6 1011.7 1010.8 0.0
17/07:00am 9.0 6.7 5.5 79 1.6 NE 7 9 4 5 1011.6 1010.7 0.0
17/06:30am 7.5 5.1 5.1 85 1.1 NE 7 9 4 5 1011.2 1010.3 0.0
17/06:00am 6.2 3.8 4.4 88 0.8 NE 6 9 3 5 1010.9 1010.0 0.0
17/05:30am 6.3 3.8 4.7 89 0.7 NE 7 9 4 5 1010.2 1009.3 0.0
17/05:00am 6.5 4.6 4.7 88 0.8 NE 4 7 2 4 1009.9 1009.0 0.0
17/04:30am 7.6 5.2 5.2 85 1.1 NE 7 9 4 5 1009.8 1008.9 0.0
17/04:00am 7.6 6.1 5.2 85 1.1 NNW 2 7 1 4 1009.3 1008.4 0.0
17/03:30am 9.0 6.7 5.5 79 1.6 W 7 9 4 5 1009.2 1008.3 0.0
17/03:00am 7.9 5.6 5.5 85 1.1 SSW 7 11 4 6 1009.1 1008.2 0.0
17/02:30am 8.1 5.7 5.2 82 1.3 S 7 9 4 5 1009.0 1008.1 0.0
17/02:00am 9.2 6.9 5.5 78 1.7 S 7 9 4 5 1009.2 1008.3 0.0
17/01:30am 10.4 7.5 4.5 67 2.7 SSE 9 11 5 6 1009.5 1008.6 0.0
17/01:00am 10.8 8.0 5.0 67 2.7 SSE 9 11 5 6 1009.7 1008.8 0.0
17/12:30am 11.8 9.1 5.7 66 2.9 S 9 11 5 6 1009.7 1008.8 0.0
17/12:00am 12.6 10.1 6.6 67 2.9 SSW 9 13 5 7 1009.9 1009.0 0.0
 
Date/Time
CDT
Tmp

°C
App
Tmp
°C
Dew
Point
°C
Rel
Hum
%
Delta-T

°C
Wind Press
QNH
hPa
Press
MSL
hPa
Rain
since
9 am
mm
Dir
 
Spd
km/h
Gust
km/h
Spd
kts
Gust
kts
16/11:30pm 13.4 10.5 6.4 62 3.4 SW 11 17 6 9 1009.6 1008.7 0.0
16/11:00pm 14.2 11.4 6.9 61 3.6 SW 11 15 6 8 1009.7 1008.8 0.0
16/10:30pm 13.9 11.2 7.3 64 3.3 SW 11 17 6 9 1009.6 1008.7 0.0
16/10:00pm 14.0 11.4 7.6 65 3.2 SW 11 17 6 9 1009.5 1008.6 0.0
16/09:30pm 14.5 10.6 7.3 62 3.6 SW 17 24 9 13 1009.3 1008.4 0.0
16/09:00pm 15.1 10.8 6.9 58 4.1 SW 19 28 10 15 1009.0 1008.1 0.0
16/08:30pm 15.6 10.4 5.5 51 4.9 SW 22 33 12 18 1008.5 1007.6 0.0
16/08:00pm 16.5 9.9 4.1 43 5.9 SW 28 35 15 19 1008.2 1007.3 0.0
16/07:34pm 17.5 10.7 3.0 38 6.8 SW 28 46 15 25 1007.7 1006.8 0.0
16/07:30pm 17.4 10.4 4.3 42 6.3 SW 30 43 16 23 1007.7 1006.8 0.0
16/07:01pm 18.2 10.4 1.6 33 7.6 SW 32 50 17 27 1007.1 1006.1 0.0
16/07:00pm 18.3 10.3 1.4 32 7.7 SW 33 50 18 27 1007.1 1006.1 0.0
16/06:50pm 18.4 10.7 3.2 36 7.2 SW 33 52 18 28 1006.8 1005.8 0.0
16/06:30pm 18.7 11.1 2.8 34 7.5 SW 32 48 17 26 1006.3 1005.4 0.0
16/06:14pm 18.9 11.2 3.4 35 7.4 SW 33 52 18 28 1006.2 1005.3 0.0
16/06:00pm 19.2 11.4 4.8 38 7.1 SW 35 52 19 28 1006.1 1005.2 0.0
16/05:39pm 19.4 10.7 3.9 36 7.5 SW 39 57 21 31 1005.7 1004.8 0.0
16/05:30pm 19.1 9.9 3.4 35 7.5 SW 41 57 22 31 1005.6 1004.7 0.0
16/05:00pm 20.2 12.2 5.5 38 7.4 WSW 37 65 20 35 1005.1 1004.2 0.0
16/04:30pm 20.1 11.9 8.2 46 6.3 WSW 41 65 22 35 1004.9 1004.0 0.0
16/04:00pm 21.2 13.4 8.2 43 6.9 SW 39 65 21 35 1004.8 1003.9 0.0
16/03:30pm 20.6 12.1 8.6 46 6.4 WSW 43 65 23 35 1004.3 1003.4 0.0
16/03:00pm 21.3 13.1 9.6 47 6.4 WSW 43 61 23 33 1004.1 1003.2 0.0
16/02:30pm 21.1 14.0 10.9 52 5.7 WSW 39 65 21 35 1003.8 1002.8 0.0
16/02:00pm 21.5 13.6 11.6 53 5.6 WSW 44 67 24 36 1003.7 1002.7 0.0

Latest Capital City Observations: Canberra | Sydney | Melbourne | Brisbane | Adelaide | Perth | Hobart | Darwin

Other Formats:

Comma delimited format used in spreadsheet applications
http://www.bom.gov.au/fwo/IDS60901/IDS60901.94681.axf

JavaScript Object Notation format (JSON) in row-major order
http://www.bom.gov.au/fwo/IDS60901/IDS60901.94681.json